createdAt,value
2018-02-25T00:00:04.934Z,-4.20
2018-02-25T00:01:58.226Z,-4.11
2018-02-25T00:02:58.092Z,-4.12
2018-02-25T00:04:51.394Z,-4.05
2018-02-25T00:05:51.284Z,-4.05
2018-02-25T00:07:44.484Z,-4.20
2018-02-25T00:08:44.426Z,-4.26
2018-02-25T00:10:37.718Z,-4.25
2018-02-25T00:11:37.595Z,-4.30
2018-02-25T00:13:30.821Z,-4.29
2018-02-25T00:14:30.792Z,-4.23
2018-02-25T00:16:24.044Z,-4.29
2018-02-25T00:17:23.920Z,-4.36
2018-02-25T00:19:17.172Z,-4.32
2018-02-25T00:20:17.095Z,-4.43
2018-02-25T00:22:10.356Z,-4.36
2018-02-25T00:23:10.253Z,-4.37
2018-02-25T00:25:03.530Z,-4.41
2018-02-25T00:26:03.455Z,-4.46
2018-02-25T00:27:56.686Z,-4.48
2018-02-25T00:28:56.591Z,-4.51
2018-02-25T00:30:49.840Z,-4.50
2018-02-25T00:31:49.787Z,-4.47
2018-02-25T00:33:44.106Z,-4.37
2018-02-25T00:34:43.910Z,-4.48
2018-02-25T00:36:37.167Z,-4.36
2018-02-25T00:37:37.106Z,-4.40
2018-02-25T00:39:30.340Z,-4.58
2018-02-25T00:40:30.247Z,-4.55
2018-02-25T00:42:23.505Z,-4.59
2018-02-25T00:43:23.401Z,-4.62
2018-02-25T00:45:16.684Z,-4.71
2018-02-25T00:46:16.589Z,-4.71
2018-02-25T00:48:09.846Z,-4.75
2018-02-25T00:49:09.759Z,-4.68
2018-02-25T00:51:03.032Z,-4.65
2018-02-25T00:52:02.897Z,-4.80
2018-02-25T00:53:56.151Z,-4.69
2018-02-25T00:54:56.064Z,-4.68
2018-02-25T00:56:49.353Z,-4.76
2018-02-25T00:57:49.234Z,-4.76
2018-02-25T00:59:42.464Z,-4.71
2018-02-25T01:00:42.432Z,-4.79
2018-02-25T01:02:35.673Z,-4.73
2018-02-25T01:03:35.581Z,-4.69
2018-02-25T01:05:28.815Z,-4.68
2018-02-25T01:06:28.718Z,-4.69
2018-02-25T01:08:21.984Z,-4.71
2018-02-25T01:09:21.888Z,-4.85
2018-02-25T01:11:15.134Z,-4.76
2018-02-25T01:12:15.054Z,-4.68
2018-02-25T01:14:08.324Z,-4.66
2018-02-25T01:15:08.207Z,-4.69
2018-02-25T01:17:01.464Z,-4.69
2018-02-25T01:18:01.394Z,-4.73
2018-02-25T01:19:54.638Z,-4.73
2018-02-25T01:20:54.532Z,-4.80
2018-02-25T01:22:47.915Z,-4.77
2018-02-25T01:23:47.701Z,-4.82
2018-02-25T01:25:40.991Z,-4.87
2018-02-25T01:26:40.879Z,-4.93
2018-02-25T01:28:34.141Z,-4.77
2018-02-25T01:29:34.026Z,-4.93
2018-02-25T01:31:27.295Z,-4.93
2018-02-25T01:32:27.233Z,-4.89
2018-02-25T01:34:20.484Z,-5.01
2018-02-25T01:35:20.361Z,-5.07
2018-02-25T01:37:13.633Z,-5.11
2018-02-25T01:38:13.524Z,-5.16
2018-02-25T01:40:06.758Z,-5.08
2018-02-25T01:41:06.679Z,-5.08
2018-02-25T01:42:59.948Z,-5.01
2018-02-25T01:43:59.841Z,-5.11
2018-02-25T01:45:53.079Z,-5.11
2018-02-25T01:46:53.020Z,-5.22
2018-02-25T01:48:46.270Z,-5.17
2018-02-25T01:49:46.175Z,-5.08
2018-02-25T01:51:39.408Z,-5.27
2018-02-25T01:52:39.331Z,-5.33
2018-02-25T01:54:32.606Z,-5.35
2018-02-25T01:55:32.502Z,-5.20
2018-02-25T01:57:25.769Z,-5.11
2018-02-25T01:58:25.662Z,-5.14
2018-02-25T02:00:18.944Z,-5.12
2018-02-25T02:01:18.828Z,-5.12
2018-02-25T02:03:12.068Z,-5.19
2018-02-25T02:04:11.984Z,-5.26
2018-02-25T02:06:05.268Z,-5.37
2018-02-25T02:07:05.162Z,-5.41
2018-02-25T02:08:58.389Z,-5.35
2018-02-25T02:09:58.326Z,-5.44
2018-02-25T02:11:51.587Z,-5.37
2018-02-25T02:12:51.479Z,-5.34
2018-02-25T02:14:44.723Z,-5.38
2018-02-25T02:15:44.641Z,-5.31
2018-02-25T02:17:37.895Z,-5.40
2018-02-25T02:18:37.805Z,-5.54
2018-02-25T02:20:31.044Z,-5.51
2018-02-25T02:21:30.960Z,-5.55
2018-02-25T02:23:24.221Z,-5.49
2018-02-25T02:24:24.134Z,-5.45
2018-02-25T02:26:17.351Z,-5.52
2018-02-25T02:27:17.284Z,-5.55
2018-02-25T02:29:10.540Z,-5.74
2018-02-25T02:30:10.440Z,-5.54
2018-02-25T02:32:03.671Z,-5.61
2018-02-25T02:33:03.611Z,-5.67
2018-02-25T02:34:56.864Z,-5.69
2018-02-25T02:35:56.764Z,-5.61
2018-02-25T02:37:50.020Z,-5.58
2018-02-25T02:38:49.948Z,-5.62
2018-02-25T02:40:43.210Z,-5.65
2018-02-25T02:41:43.116Z,-5.58
2018-02-25T02:43:36.331Z,-5.65
2018-02-25T02:44:36.280Z,-5.56
2018-02-25T02:46:29.550Z,-5.55
2018-02-25T02:47:29.427Z,-5.56
2018-02-25T02:49:22.651Z,-5.72
2018-02-25T02:50:22.592Z,-5.82
2018-02-25T02:52:15.859Z,-5.84
2018-02-25T02:53:15.760Z,-5.88
2018-02-25T02:55:08.993Z,-5.73
2018-02-25T02:56:08.910Z,-5.74
2018-02-25T02:58:02.165Z,-5.72
2018-02-25T02:59:02.059Z,-5.76
2018-02-25T03:00:55.298Z,-5.87
2018-02-25T03:01:55.237Z,-5.73
2018-02-25T03:03:48.487Z,-5.73
2018-02-25T03:04:48.383Z,-5.79
2018-02-25T03:06:41.649Z,-5.82
2018-02-25T03:07:41.558Z,-6.01
2018-02-25T03:09:34.840Z,-6.02
2018-02-25T03:10:34.729Z,-6.05
2018-02-25T03:12:27.966Z,-5.97
2018-02-25T03:13:27.893Z,-5.88
2018-02-25T03:15:21.172Z,-5.90
2018-02-25T03:16:21.064Z,-5.88
2018-02-25T03:18:14.277Z,-5.87
2018-02-25T03:19:14.202Z,-5.87
2018-02-25T03:21:07.475Z,-5.88
2018-02-25T03:22:07.362Z,-5.95
2018-02-25T03:24:00.612Z,-6.05
2018-02-25T03:25:00.524Z,-5.98
2018-02-25T03:26:53.789Z,-6.05
2018-02-25T03:27:53.682Z,-6.06
2018-02-25T03:29:46.921Z,-6.05
2018-02-25T03:30:46.852Z,-6.06
2018-02-25T03:32:40.107Z,-5.91
2018-02-25T03:33:40.004Z,-5.94
2018-02-25T03:35:33.236Z,-6.02
2018-02-25T03:36:33.175Z,-6.06
2018-02-25T03:38:26.433Z,-6.08
2018-02-25T03:39:26.320Z,-6.01
2018-02-25T03:41:19.564Z,-6.15
2018-02-25T03:42:19.485Z,-6.13
2018-02-25T03:44:12.761Z,-6.09
2018-02-25T03:45:12.658Z,-6.15
2018-02-25T03:47:05.891Z,-6.29
2018-02-25T03:48:05.809Z,-6.18
2018-02-25T03:49:59.076Z,-6.18
2018-02-25T03:50:58.971Z,-6.12
2018-02-25T03:52:52.213Z,-5.95
2018-02-25T03:53:52.133Z,-6.08
2018-02-25T03:55:45.397Z,-6.08
2018-02-25T03:56:45.294Z,-6.19
2018-02-25T03:58:38.571Z,-6.19
2018-02-25T03:59:38.490Z,-6.23
2018-02-25T04:01:31.808Z,-6.29
2018-02-25T04:02:31.651Z,-6.30
2018-02-25T04:04:24.903Z,-6.27
2018-02-25T04:05:24.816Z,-6.23
2018-02-25T04:07:18.074Z,-6.27
2018-02-25T04:08:17.994Z,-6.21
2018-02-25T04:10:11.204Z,-6.21
2018-02-25T04:11:11.131Z,-6.36
2018-02-25T04:13:04.411Z,-6.42
2018-02-25T04:14:04.288Z,-6.40
2018-02-25T04:15:57.523Z,-6.39
2018-02-25T04:16:57.449Z,-6.54
2018-02-25T04:18:50.715Z,-6.45
2018-02-25T04:19:50.632Z,-6.40
2018-02-25T04:21:43.846Z,-6.39
2018-02-25T04:22:43.770Z,-6.45
2018-02-25T04:24:37.038Z,-6.37
2018-02-25T04:25:36.931Z,-6.40
2018-02-25T04:27:30.171Z,-6.39
2018-02-25T04:28:30.098Z,-6.40
2018-02-25T04:30:23.354Z,-6.34
2018-02-25T04:31:23.254Z,-6.39
2018-02-25T04:33:16.500Z,-6.36
2018-02-25T04:34:16.418Z,-6.30
2018-02-25T04:36:09.713Z,-6.26
2018-02-25T04:37:09.594Z,-6.29
2018-02-25T04:39:02.812Z,-6.34
2018-02-25T04:40:02.734Z,-6.44
2018-02-25T04:41:56.019Z,-6.45
2018-02-25T04:42:55.898Z,-6.54
2018-02-25T04:44:49.135Z,-6.40
2018-02-25T04:45:49.062Z,-6.36
2018-02-25T04:47:42.342Z,-6.44
2018-02-25T04:48:42.223Z,-6.45
2018-02-25T04:50:35.489Z,-6.42
2018-02-25T04:51:35.400Z,-6.42
2018-02-25T04:53:28.664Z,-6.44
2018-02-25T04:54:28.565Z,-6.52
2018-02-25T04:56:21.797Z,-6.61
2018-02-25T04:57:21.715Z,-6.64
2018-02-25T04:59:14.978Z,-6.61
2018-02-25T05:00:14.875Z,-6.73
2018-02-25T05:02:08.126Z,-6.54
2018-02-25T05:03:08.036Z,-6.63
2018-02-25T05:05:01.299Z,-6.55
2018-02-25T05:06:01.194Z,-6.48
2018-02-25T05:07:54.428Z,-6.59
2018-02-25T05:08:54.355Z,-6.54
2018-02-25T05:10:47.629Z,-6.63
2018-02-25T05:11:47.533Z,-6.70
2018-02-25T05:13:40.800Z,-6.74
2018-02-25T05:14:40.674Z,-6.67
2018-02-25T05:16:33.949Z,-6.81
2018-02-25T05:17:33.844Z,-6.67
2018-02-25T05:19:27.068Z,-6.55
2018-02-25T05:20:26.993Z,-6.59
2018-02-25T05:22:20.272Z,-6.76
2018-02-25T05:23:20.154Z,-6.84
2018-02-25T05:25:13.395Z,-6.71
2018-02-25T05:26:13.307Z,-6.69
2018-02-25T05:28:06.605Z,-6.71
2018-02-25T05:29:06.487Z,-6.82
2018-02-25T05:30:59.760Z,-6.87
2018-02-25T05:31:59.669Z,-6.77
2018-02-25T05:33:52.919Z,-6.66
2018-02-25T05:34:52.830Z,-6.81
2018-02-25T05:36:46.060Z,-6.82
2018-02-25T05:37:45.979Z,-6.90
2018-02-25T05:39:39.248Z,-6.85
2018-02-25T05:40:39.138Z,-6.90
2018-02-25T05:42:32.378Z,-6.88
2018-02-25T05:43:32.295Z,-6.91
2018-02-25T05:45:25.557Z,-6.91
2018-02-25T05:46:25.460Z,-6.97
2018-02-25T05:48:18.703Z,-6.97
2018-02-25T05:49:18.629Z,-7.06
2018-02-25T05:51:11.873Z,-7.15
2018-02-25T05:52:11.779Z,-7.05
2018-02-25T05:54:05.028Z,-7.20
2018-02-25T05:55:04.937Z,-7.13
2018-02-25T05:56:58.214Z,-7.21
2018-02-25T05:57:58.084Z,-7.19
2018-02-25T05:59:51.332Z,-7.31
2018-02-25T06:00:51.248Z,-7.38
2018-02-25T06:02:44.524Z,-7.33
2018-02-25T06:03:44.404Z,-7.39
2018-02-25T06:05:37.638Z,-7.30
2018-02-25T06:06:37.567Z,-7.26
2018-02-25T06:08:30.834Z,-7.48
2018-02-25T06:09:30.720Z,-7.48
2018-02-25T06:11:23.964Z,-7.39
2018-02-25T06:12:23.892Z,-7.37
2018-02-25T06:14:17.149Z,-7.33
2018-02-25T06:15:17.085Z,-7.37
2018-02-25T06:17:10.301Z,-7.30
2018-02-25T06:18:10.217Z,-7.31
2018-02-25T06:20:03.472Z,-7.31
2018-02-25T06:21:03.369Z,-7.23
2018-02-25T06:22:57.601Z,-7.19
2018-02-25T06:23:57.522Z,-7.29
2018-02-25T06:25:50.805Z,-7.10
2018-02-25T06:26:50.684Z,-7.15
2018-02-25T06:28:43.927Z,-7.24
2018-02-25T06:29:51.488Z,-7.30
2018-02-25T06:31:37.102Z,-7.27
2018-02-25T06:32:44.644Z,-7.27
2018-02-25T06:34:30.257Z,-7.03
2018-02-25T06:35:30.157Z,-7.15
2018-02-25T06:37:23.420Z,-7.06
2018-02-25T06:38:23.337Z,-7.12
2018-02-25T06:40:16.569Z,-7.09
2018-02-25T06:41:16.496Z,-7.12
2018-02-25T06:43:09.758Z,-7.06
2018-02-25T06:44:09.656Z,-7.15
2018-02-25T06:46:02.894Z,-7.16
2018-02-25T06:47:02.816Z,-7.19
2018-02-25T06:48:56.088Z,-7.12
2018-02-25T06:49:55.979Z,-7.10
2018-02-25T06:51:49.203Z,-6.97
2018-02-25T06:52:49.164Z,-6.97
2018-02-25T06:54:42.392Z,-7.05
2018-02-25T06:55:42.292Z,-6.90
2018-02-25T06:57:35.532Z,-6.97
2018-02-25T06:58:35.464Z,-6.95
2018-02-25T07:00:28.722Z,-6.94
2018-02-25T07:01:28.621Z,-6.81
2018-02-25T07:03:21.853Z,-6.74
2018-02-25T07:04:21.781Z,-6.71
2018-02-25T07:06:15.041Z,-6.73
2018-02-25T07:07:14.935Z,-6.67
2018-02-25T07:09:08.174Z,-6.63
2018-02-25T07:10:08.107Z,-6.52
2018-02-25T07:12:01.365Z,-5.38
2018-02-25T07:13:01.271Z,-4.68
2018-02-25T07:14:54.512Z,-3.93
2018-02-25T07:15:54.424Z,-3.56
2018-02-25T07:17:47.699Z,-4.09
2018-02-25T07:18:47.587Z,-4.07
2018-02-25T07:20:40.835Z,-3.49
2018-02-25T07:21:40.744Z,-4.05
2018-02-25T07:23:34.006Z,-3.04
2018-02-25T07:24:33.905Z,-3.22
2018-02-25T07:26:27.141Z,-3.08
2018-02-25T07:27:27.066Z,-3.20
2018-02-25T07:29:20.338Z,-2.86
2018-02-25T07:30:20.252Z,-2.53
2018-02-25T07:32:13.479Z,-2.33
2018-02-25T07:33:13.402Z,-2.36
2018-02-25T07:35:06.674Z,-2.72
2018-02-25T07:36:06.590Z,-2.33
2018-02-25T07:37:59.829Z,-1.20
2018-02-25T07:38:59.742Z,-1.09
2018-02-25T07:40:53.009Z,-0.13
2018-02-25T07:41:52.921Z,-0.63
2018-02-25T07:43:46.146Z,0.02
2018-02-25T07:44:46.101Z,0.49
2018-02-25T07:46:39.353Z,1.01
2018-02-25T07:47:39.263Z,0.34
2018-02-25T07:49:32.514Z,-0.13
2018-02-25T07:50:32.432Z,0.05
2018-02-25T07:52:25.722Z,0.42
2018-02-25T07:53:25.621Z,0.30
2018-02-25T07:55:18.847Z,0.27
2018-02-25T07:56:18.775Z,0.89
2018-02-25T07:58:12.065Z,-0.04
2018-02-25T07:59:11.960Z,-0.50
2018-02-25T08:01:05.248Z,0.27
2018-02-25T08:02:05.154Z,-0.26
2018-02-25T08:03:58.414Z,-1.36
2018-02-25T08:04:58.333Z,-0.91
2018-02-25T08:06:51.576Z,0.03
2018-02-25T08:07:51.507Z,1.00
2018-02-25T08:09:44.785Z,2.23
2018-02-25T08:10:44.693Z,0.42
2018-02-25T08:12:37.923Z,-0.60
2018-02-25T08:13:37.911Z,-0.50
2018-02-25T08:15:31.169Z,0.15
2018-02-25T08:16:31.054Z,1.25
2018-02-25T08:18:24.291Z,-0.22
2018-02-25T08:19:24.223Z,-2.00
2018-02-25T08:21:17.526Z,-4.07
2018-02-25T08:22:17.428Z,-4.23
2018-02-25T08:24:10.679Z,-3.39
2018-02-25T08:25:10.613Z,-2.21
2018-02-25T08:27:04.898Z,-0.26
2018-02-25T08:28:04.830Z,-0.16
2018-02-25T08:29:58.038Z,0.31
2018-02-25T08:30:57.978Z,0.34
2018-02-25T08:32:51.240Z,1.03
2018-02-25T08:33:51.140Z,1.08
2018-02-25T08:35:44.403Z,0.18
2018-02-25T08:36:44.365Z,0.10
2018-02-25T08:38:37.603Z,1.06
2018-02-25T08:39:37.538Z,1.82
2018-02-25T08:41:30.765Z,1.98
2018-02-25T08:42:30.691Z,0.88
2018-02-25T08:44:23.960Z,1.68
2018-02-25T08:45:23.869Z,1.94
2018-02-25T08:47:17.138Z,1.28
2018-02-25T08:48:17.070Z,0.46
2018-02-25T08:50:10.363Z,2.23
2018-02-25T08:51:10.260Z,2.64
2018-02-25T08:53:03.496Z,2.30
2018-02-25T08:54:03.443Z,1.29
2018-02-25T08:55:56.735Z,0.05
2018-02-25T08:56:56.622Z,0.80
2018-02-25T08:58:49.888Z,1.55
2018-02-25T08:59:49.836Z,1.52
2018-02-25T09:01:43.208Z,0.42
2018-02-25T09:02:43.172Z,0.43
2018-02-25T09:04:36.340Z,0.48
2018-02-25T09:05:36.278Z,0.70
2018-02-25T09:07:30.635Z,0.42
2018-02-25T09:08:30.477Z,0.09
2018-02-25T09:10:23.739Z,0.61
2018-02-25T09:11:23.681Z,1.47
2018-02-25T09:13:17.056Z,3.36
2018-02-25T09:14:16.922Z,3.70
2018-02-25T09:16:10.191Z,3.57
2018-02-25T09:17:10.149Z,3.76
2018-02-25T09:19:04.442Z,3.42
2018-02-25T09:20:04.310Z,2.58
2018-02-25T09:21:57.597Z,2.87
2018-02-25T09:22:57.491Z,2.84
2018-02-25T09:24:50.888Z,3.25
2018-02-25T09:25:50.780Z,3.58
2018-02-25T09:27:44.099Z,2.45
2018-02-25T09:28:43.924Z,2.33
2018-02-25T09:30:39.345Z,2.79
2018-02-25T09:31:39.126Z,3.88
2018-02-25T09:33:32.362Z,3.89
2018-02-25T09:34:32.350Z,3.97
2018-02-25T09:36:26.615Z,3.27
2018-02-25T09:37:26.588Z,3.24
2018-02-25T09:39:19.857Z,3.52
2018-02-25T09:40:19.736Z,3.92
2018-02-25T09:42:13.296Z,4.07
2018-02-25T09:43:13.298Z,3.65
2018-02-25T09:45:06.208Z,3.36
2018-02-25T09:46:06.176Z,3.62
2018-02-25T09:48:00.603Z,2.95
2018-02-25T09:49:00.522Z,3.00
2018-02-25T09:50:53.808Z,3.06
2018-02-25T09:51:53.607Z,3.05
2018-02-25T09:53:47.874Z,3.57
2018-02-25T09:54:47.798Z,3.89
2018-02-25T09:56:42.117Z,4.42
2018-02-25T09:57:41.984Z,5.22
2018-02-25T09:59:35.544Z,5.19
2018-02-25T10:00:35.254Z,3.61
2018-02-25T10:02:28.495Z,4.14
2018-02-25T10:03:28.405Z,4.39
2018-02-25T10:05:21.787Z,4.24
2018-02-25T10:06:21.627Z,4.37
2018-02-25T10:08:14.913Z,4.07
2018-02-25T10:09:14.824Z,3.92
2018-02-25T10:11:09.251Z,3.02
2018-02-25T10:12:09.345Z,2.26
2018-02-25T10:14:02.495Z,2.46
2018-02-25T10:15:02.394Z,2.48
2018-02-25T10:16:55.852Z,2.45
2018-02-25T10:17:55.590Z,2.40
2018-02-25T10:19:49.878Z,3.50
2018-02-25T10:20:49.785Z,3.15
2018-02-25T10:22:43.181Z,4.33
2018-02-25T10:23:43.153Z,4.18
2018-02-25T10:25:37.112Z,4.42
2018-02-25T10:26:36.489Z,4.55
2018-02-25T10:28:29.608Z,5.71
2018-02-25T10:29:29.516Z,5.23
2018-02-25T10:31:23.978Z,4.73
2018-02-25T10:32:23.706Z,5.09
2018-02-25T10:34:16.996Z,5.38
2018-02-25T10:35:17.008Z,5.78
2018-02-25T10:37:10.281Z,6.19
2018-02-25T10:38:10.104Z,5.82
2018-02-25T10:40:03.404Z,5.12
2018-02-25T10:41:03.285Z,5.32
2018-02-25T10:42:56.695Z,4.39
2018-02-25T10:43:56.496Z,5.41
2018-02-25T10:45:50.022Z,4.55
2018-02-25T10:46:49.723Z,5.30
2018-02-25T10:48:42.980Z,3.03
2018-02-25T10:49:42.927Z,2.59
2018-02-25T10:51:36.362Z,3.25
2018-02-25T10:52:36.159Z,3.15
2018-02-25T10:54:30.447Z,3.34
2018-02-25T10:55:30.245Z,3.40
2018-02-25T10:57:24.705Z,2.77
2018-02-25T10:58:24.478Z,3.09
2018-02-25T11:00:18.910Z,3.15
2018-02-25T11:01:18.955Z,3.42
2018-02-25T11:03:12.046Z,4.04
2018-02-25T11:04:12.026Z,4.99
2018-02-25T11:06:05.307Z,4.76
2018-02-25T11:07:05.121Z,4.28
2018-02-25T11:08:58.431Z,3.85
2018-02-25T11:09:58.335Z,3.36
2018-02-25T11:11:51.869Z,3.94
2018-02-25T11:12:51.598Z,4.57
2018-02-25T11:14:45.028Z,4.52
2018-02-25T11:15:44.752Z,4.10
2018-02-25T11:17:39.319Z,4.12
2018-02-25T11:18:47.775Z,4.70
2018-02-25T11:20:32.348Z,5.89
2018-02-25T11:21:32.225Z,6.22
2018-02-25T11:23:25.499Z,6.14
2018-02-25T11:24:25.502Z,6.51
2018-02-25T11:26:19.306Z,4.91
2018-02-25T11:27:19.106Z,5.02
2018-02-25T11:29:12.381Z,5.37
2018-02-25T11:30:12.316Z,5.37
2018-02-25T11:32:05.683Z,4.21
2018-02-25T11:33:05.534Z,4.15
2018-02-25T11:34:58.858Z,4.98
2018-02-25T11:35:58.730Z,5.32
2018-02-25T11:37:52.071Z,5.75
2018-02-25T11:38:52.066Z,5.59
2018-02-25T11:40:46.313Z,6.04
2018-02-25T11:41:46.225Z,6.66
2018-02-25T11:43:39.477Z,5.59
2018-02-25T11:44:39.390Z,6.13
2018-02-25T11:46:33.775Z,4.72
2018-02-25T11:47:33.606Z,3.86
2018-02-25T11:49:27.929Z,3.23
2018-02-25T11:50:27.845Z,3.65
2018-02-25T11:52:21.124Z,4.65
2018-02-25T11:53:21.035Z,5.23
2018-02-25T11:55:14.384Z,4.65
2018-02-25T11:56:14.265Z,4.75
2018-02-25T11:58:07.566Z,4.54
2018-02-25T11:59:07.476Z,3.36
2018-02-25T12:01:00.864Z,3.67
2018-02-25T12:02:00.694Z,4.22
2018-02-25T12:03:54.100Z,4.86
2018-02-25T12:04:53.877Z,5.34
2018-02-25T12:06:47.180Z,5.32
2018-02-25T12:07:47.091Z,5.64
2018-02-25T12:09:40.421Z,5.32
2018-02-25T12:10:40.310Z,4.77
2018-02-25T12:12:33.634Z,4.19
2018-02-25T12:13:33.537Z,4.37
2018-02-25T12:15:26.809Z,3.86
2018-02-25T12:16:26.725Z,3.83
2018-02-25T12:18:20.128Z,3.50
2018-02-25T12:19:19.976Z,2.88
2018-02-25T12:21:13.230Z,3.47
2018-02-25T12:22:13.171Z,3.82
2018-02-25T12:24:06.465Z,4.58
2018-02-25T12:25:06.368Z,5.13
2018-02-25T12:26:59.654Z,5.32
2018-02-25T12:27:59.628Z,5.37
2018-02-25T12:29:52.896Z,5.38
2018-02-25T12:30:52.792Z,5.49
2018-02-25T12:32:46.046Z,5.37
2018-02-25T12:33:46.055Z,4.98
2018-02-25T12:35:39.334Z,3.89
2018-02-25T12:36:39.222Z,3.43
2018-02-25T12:38:32.643Z,3.83
2018-02-25T12:39:32.427Z,4.43
2018-02-25T12:41:25.690Z,4.22
2018-02-25T12:42:25.614Z,3.92
2018-02-25T12:44:18.929Z,4.22
2018-02-25T12:45:18.857Z,4.61
2018-02-25T12:47:12.145Z,5.10
2018-02-25T12:48:12.059Z,5.17
2018-02-25T12:50:05.359Z,4.50
2018-02-25T12:51:05.263Z,4.99
2018-02-25T12:52:58.589Z,4.70
2018-02-25T12:53:58.446Z,4.64
2018-02-25T12:55:51.720Z,4.72
2018-02-25T12:56:51.678Z,4.73
2018-02-25T12:58:44.970Z,3.54
2018-02-25T12:59:44.891Z,2.46
2018-02-25T13:01:38.211Z,1.71
2018-02-25T13:02:38.096Z,2.10
2018-02-25T13:04:31.425Z,3.52
2018-02-25T13:05:31.316Z,3.67
2018-02-25T13:07:24.569Z,3.68
2018-02-25T13:08:24.513Z,2.79
2018-02-25T13:10:17.834Z,3.46
2018-02-25T13:11:17.754Z,3.89
2018-02-25T13:13:10.949Z,2.88
2018-02-25T13:14:10.934Z,2.84
2018-02-25T13:16:04.182Z,3.24
2018-02-25T13:17:04.109Z,3.42
2018-02-25T13:18:57.357Z,3.24
2018-02-25T13:19:57.385Z,2.71
2018-02-25T13:21:50.691Z,1.79
2018-02-25T13:22:50.762Z,1.65
2018-02-25T13:24:44.849Z,1.65
2018-02-25T13:25:44.772Z,1.64
2018-02-25T13:27:38.061Z,1.51
2018-02-25T13:28:38.008Z,1.55
2018-02-25T13:30:31.217Z,1.42
2018-02-25T13:31:31.246Z,1.14
2018-02-25T13:33:24.495Z,1.52
2018-02-25T13:34:24.402Z,1.50
2018-02-25T13:36:17.618Z,1.44
2018-02-25T13:37:17.568Z,1.19
2018-02-25T13:39:10.895Z,1.16
2018-02-25T13:40:10.758Z,1.26
2018-02-25T13:42:04.021Z,0.96
2018-02-25T13:43:03.987Z,0.94
2018-02-25T13:44:58.231Z,1.00
2018-02-25T13:45:58.118Z,1.06
2018-02-25T13:47:51.441Z,0.89
2018-02-25T13:48:51.396Z,0.79
2018-02-25T13:50:45.768Z,0.88
2018-02-25T13:51:45.563Z,0.92
2018-02-25T13:53:39.796Z,0.86
2018-02-25T13:54:39.742Z,0.88
2018-02-25T13:56:33.976Z,1.03
2018-02-25T13:57:33.861Z,1.03
2018-02-25T13:59:27.129Z,0.58
2018-02-25T14:00:27.068Z,0.42
2018-02-25T14:02:20.382Z,0.12
2018-02-25T14:03:20.216Z,0.34
2018-02-25T14:05:14.534Z,0.39
2018-02-25T14:06:14.453Z,0.53
2018-02-25T14:08:07.843Z,0.33
2018-02-25T14:09:07.710Z,0.13
2018-02-25T14:11:00.838Z,0.18
2018-02-25T14:12:00.809Z,0.24
2018-02-25T14:13:54.088Z,0.28
2018-02-25T14:14:53.986Z,0.30
2018-02-25T14:16:47.325Z,0.31
2018-02-25T14:17:47.177Z,0.43
2018-02-25T14:19:40.444Z,0.34
2018-02-25T14:20:40.342Z,0.15
2018-02-25T14:22:33.656Z,0.00
2018-02-25T14:23:33.572Z,-0.01
2018-02-25T14:25:27.989Z,-0.12
2018-02-25T14:26:27.747Z,-0.15
2018-02-25T14:28:21.014Z,0.05
2018-02-25T14:29:20.956Z,-0.12
2018-02-25T14:31:14.316Z,-0.15
2018-02-25T14:32:14.127Z,-0.16
2018-02-25T14:34:08.353Z,-0.30
2018-02-25T14:35:08.271Z,-0.33
2018-02-25T14:37:02.534Z,-0.50
2018-02-25T14:38:02.434Z,-0.51
2018-02-25T14:39:55.872Z,-0.51
2018-02-25T14:40:55.617Z,-0.54
2018-02-25T14:42:48.894Z,-0.55
2018-02-25T14:43:48.858Z,-0.55
2018-02-25T14:45:42.189Z,-0.54
2018-02-25T14:46:42.063Z,-0.47
2018-02-25T14:48:35.936Z,-0.69
2018-02-25T14:49:35.193Z,-0.63
2018-02-25T14:51:28.438Z,-0.63
2018-02-25T14:52:28.355Z,-0.57
2018-02-25T14:54:21.629Z,-0.60
2018-02-25T14:55:21.631Z,-0.77
2018-02-25T14:57:14.821Z,-0.75
2018-02-25T14:58:14.804Z,-0.65
2018-02-25T15:00:08.007Z,-0.95
2018-02-25T15:01:07.902Z,-0.86
2018-02-25T15:03:01.158Z,-0.94
2018-02-25T15:04:01.101Z,-0.94
2018-02-25T15:05:54.440Z,-1.13
2018-02-25T15:06:54.257Z,-1.06
2018-02-25T15:08:48.679Z,-1.31
2018-02-25T15:09:48.429Z,-1.25
2018-02-25T15:11:41.831Z,-1.20
2018-02-25T15:12:41.642Z,-1.21
2018-02-25T15:14:34.896Z,-1.24
2018-02-25T15:15:34.819Z,-1.25
2018-02-25T15:17:28.052Z,-1.30
2018-02-25T15:18:27.987Z,-1.28
2018-02-25T15:20:22.242Z,-1.27
2018-02-25T15:21:22.212Z,-1.25
2018-02-25T15:23:15.410Z,-1.41
2018-02-25T15:24:15.327Z,-1.39
2018-02-25T15:26:08.591Z,-1.36
2018-02-25T15:27:08.510Z,-1.35
2018-02-25T15:29:01.810Z,-1.41
2018-02-25T15:30:01.667Z,-1.42
2018-02-25T15:31:54.956Z,-1.42
2018-02-25T15:32:54.829Z,-1.39
2018-02-25T15:34:48.164Z,-1.48
2018-02-25T15:35:48.034Z,-1.43
2018-02-25T15:37:41.364Z,-1.46
2018-02-25T15:38:41.244Z,-1.35
2018-02-25T15:40:34.576Z,-1.43
2018-02-25T15:41:34.373Z,-1.53
2018-02-25T15:43:27.700Z,-1.38
2018-02-25T15:44:27.525Z,-1.54
2018-02-25T15:46:20.905Z,-1.64
2018-02-25T15:47:20.733Z,-1.70
2018-02-25T15:49:14.072Z,-1.75
2018-02-25T15:50:13.902Z,-1.78
2018-02-25T15:52:07.343Z,-1.80
2018-02-25T15:53:07.074Z,-1.75
2018-02-25T15:55:00.524Z,-1.81
2018-02-25T15:56:00.457Z,-1.82
2018-02-25T15:57:53.780Z,-1.87
2018-02-25T15:58:53.630Z,-1.74
2018-02-25T16:00:46.892Z,-1.74
2018-02-25T16:01:46.803Z,-1.80
2018-02-25T16:03:40.083Z,-1.82
2018-02-25T16:04:39.946Z,-1.78
2018-02-25T16:06:34.249Z,-1.82
2018-02-25T16:07:34.130Z,-1.82
2018-02-25T16:09:27.444Z,-1.82
2018-02-25T16:10:27.336Z,-1.85
2018-02-25T16:12:20.673Z,-1.90
2018-02-25T16:13:20.496Z,-1.92
2018-02-25T16:15:13.786Z,-1.96
2018-02-25T16:16:13.661Z,-1.96
2018-02-25T16:18:07.935Z,-2.03
2018-02-25T16:19:07.792Z,-2.06
2018-02-25T16:21:01.151Z,-2.06
2018-02-25T16:22:01.016Z,-2.02
2018-02-25T16:23:54.265Z,-2.03
2018-02-25T16:24:54.227Z,-2.11
2018-02-25T16:26:48.492Z,-2.23
2018-02-25T16:27:48.395Z,-2.33
2018-02-25T16:29:41.634Z,-2.28
2018-02-25T16:30:41.526Z,-2.35
2018-02-25T16:32:34.823Z,-2.13
2018-02-25T16:33:34.716Z,-2.16
2018-02-25T16:35:28.913Z,-2.24
2018-02-25T16:36:28.867Z,-2.23
2018-02-25T16:38:22.144Z,-2.29
2018-02-25T16:39:22.028Z,-2.21
2018-02-25T16:41:15.333Z,-2.20
2018-02-25T16:42:15.207Z,-2.32
2018-02-25T16:44:08.579Z,-2.39
2018-02-25T16:45:08.379Z,-2.35
2018-02-25T16:47:01.619Z,-2.33
2018-02-25T16:48:01.573Z,-2.47
2018-02-25T16:49:54.922Z,-2.57
2018-02-25T16:50:54.747Z,-2.63
2018-02-25T16:52:48.018Z,-2.69
2018-02-25T16:53:47.901Z,-2.72
2018-02-25T16:55:42.180Z,-2.63
2018-02-25T16:56:42.098Z,-2.57
2018-02-25T16:58:35.333Z,-2.68
2018-02-25T16:59:35.272Z,-2.78
2018-02-25T17:01:28.581Z,-2.79
2018-02-25T17:02:28.443Z,-2.79
2018-02-25T17:04:21.656Z,-2.76
2018-02-25T17:05:21.613Z,-2.76
2018-02-25T17:07:14.870Z,-2.75
2018-02-25T17:08:14.761Z,-2.85
2018-02-25T17:10:08.008Z,-2.92
2018-02-25T17:11:07.931Z,-3.00
2018-02-25T17:13:01.241Z,-3.00
2018-02-25T17:14:01.151Z,-2.99
2018-02-25T17:15:54.387Z,-2.82
2018-02-25T17:16:54.288Z,-3.05
2018-02-25T17:18:47.530Z,-2.99
2018-02-25T17:19:47.415Z,-3.00
2018-02-25T17:21:40.671Z,-3.15
2018-02-25T17:22:40.613Z,-3.38
2018-02-25T17:24:33.903Z,-3.36
2018-02-25T17:25:33.775Z,-3.39
2018-02-25T17:27:27.001Z,-3.39
2018-02-25T17:28:26.947Z,-3.50
2018-02-25T17:30:20.217Z,-3.39
2018-02-25T17:31:20.116Z,-3.32
2018-02-25T17:33:13.371Z,-3.36
2018-02-25T17:34:13.312Z,-3.47
2018-02-25T17:36:06.560Z,-3.44
2018-02-25T17:37:06.455Z,-3.50
2018-02-25T17:38:59.721Z,-3.46
2018-02-25T17:39:59.691Z,-3.51
2018-02-25T17:41:52.925Z,-3.62
2018-02-25T17:42:52.830Z,-3.56
2018-02-25T17:44:46.034Z,-3.64
2018-02-25T17:45:45.987Z,-3.62
2018-02-25T17:47:39.268Z,-3.67
2018-02-25T17:48:39.136Z,-3.61
2018-02-25T17:50:33.382Z,-3.70
2018-02-25T17:51:33.329Z,-3.72
2018-02-25T17:53:27.616Z,-3.87
2018-02-25T17:54:27.549Z,-3.98
2018-02-25T17:56:21.826Z,-4.18
2018-02-25T17:57:21.713Z,-4.22
2018-02-25T17:59:14.911Z,-4.33
2018-02-25T18:00:14.849Z,-4.38
2018-02-25T18:02:09.041Z,-4.54
2018-02-25T18:03:08.996Z,-4.59
2018-02-25T18:05:03.265Z,-4.91
2018-02-25T18:06:03.186Z,-5.11
2018-02-25T18:07:57.410Z,-5.41
2018-02-25T18:08:57.291Z,-5.55
2018-02-25T18:10:50.628Z,-5.90
2018-02-25T18:11:50.545Z,-6.06
2018-02-25T18:13:43.749Z,-6.27
2018-02-25T18:14:43.682Z,-6.36
2018-02-25T18:16:37.970Z,-6.39
2018-02-25T18:17:37.863Z,-6.34
2018-02-25T18:19:31.104Z,-6.42
2018-02-25T18:20:31.042Z,-6.52
2018-02-25T18:22:24.304Z,-6.73
2018-02-25T18:23:24.216Z,-6.82
2018-02-25T18:25:18.504Z,-7.02
2018-02-25T18:26:18.369Z,-7.00
2018-02-25T18:28:11.620Z,-6.99
2018-02-25T18:29:11.548Z,-6.90
2018-02-25T18:31:04.943Z,-6.73
2018-02-25T18:32:04.721Z,-6.82
2018-02-25T18:33:58.955Z,-6.88
2018-02-25T18:34:58.969Z,-6.91
2018-02-25T18:36:52.106Z,-6.79
2018-02-25T18:37:52.039Z,-6.87
2018-02-25T18:39:45.321Z,-6.95
2018-02-25T18:40:45.220Z,-7.09
2018-02-25T18:42:38.457Z,-7.09
2018-02-25T18:43:38.399Z,-7.03
2018-02-25T18:45:32.710Z,-7.15
2018-02-25T18:46:32.585Z,-7.16
2018-02-25T18:48:26.860Z,-7.30